sensor_id;sensor_type;location;lat;lon;timestamp;P1;durP1;ratioP1;P2;durP2;ratioP2
12878;SDS011;20617;49.476;10.986;2023-06-22T00:00:02;9.95;;;7.22;;
12878;SDS011;20617;49.476;10.986;2023-06-22T00:02:14;8.77;;;7.35;;
12878;SDS011;20617;49.476;10.986;2023-06-22T00:06:23;8.07;;;6.82;;
12878;SDS011;20617;49.476;10.986;2023-06-22T00:10:33;11.98;;;7.68;;
12878;SDS011;20617;49.476;10.986;2023-06-22T00:14:45;9.27;;;7.13;;
12878;SDS011;20617;49.476;10.986;2023-06-22T00:16:51;8.93;;;6.63;;
12878;SDS011;20617;49.476;10.986;2023-06-22T00:18:59;9.77;;;7.15;;
12878;SDS011;20617;49.476;10.986;2023-06-22T00:21:07;7.65;;;6.30;;
12878;SDS011;20617;49.476;10.986;2023-06-22T00:23:14;9.20;;;7.15;;
12878;SDS011;20617;49.476;10.986;2023-06-22T00:27:24;9.18;;;6.68;;
12878;SDS011;20617;49.476;10.986;2023-06-22T00:29:29;8.88;;;6.60;;
12878;SDS011;20617;49.476;10.986;2023-06-22T00:31:37;8.85;;;6.90;;
12878;SDS011;20617;49.476;10.986;2023-06-22T00:33:44;8.65;;;5.68;;
12878;SDS011;20617;49.476;10.986;2023-06-22T00:35:52;7.97;;;6.28;;
12878;SDS011;20617;49.476;10.986;2023-06-22T00:37:58;6.72;;;6.03;;
12878;SDS011;20617;49.476;10.986;2023-06-22T00:40:09;8.70;;;5.82;;
12878;SDS011;20617;49.476;10.986;2023-06-22T00:42:16;8.57;;;5.93;;
12878;SDS011;20617;49.476;10.986;2023-06-22T00:46:26;7.90;;;5.95;;
12878;SDS011;20617;49.476;10.986;2023-06-22T00:50:38;8.55;;;6.25;;
12878;SDS011;20617;49.476;10.986;2023-06-22T00:52:44;7.78;;;6.47;;
12878;SDS011;20617;49.476;10.986;2023-06-22T00:54:51;10.77;;;7.03;;
12878;SDS011;20617;49.476;10.986;2023-06-22T00:56:57;8.27;;;6.72;;
12878;SDS011;20617;49.476;10.986;2023-06-22T00:59:02;9.98;;;7.43;;
12878;SDS011;20617;49.476;10.986;2023-06-22T01:01:15;10.52;;;7.72;;
12878;SDS011;20617;49.476;10.986;2023-06-22T01:03:24;7.57;;;6.70;;
12878;SDS011;20617;49.476;10.986;2023-06-22T01:05:32;8.32;;;7.43;;
12878;SDS011;20617;49.476;10.986;2023-06-22T01:07:38;8.93;;;6.45;;
12878;SDS011;20617;49.476;10.986;2023-06-22T01:09:49;11.15;;;6.90;;
12878;SDS011;20617;49.476;10.986;2023-06-22T01:12:02;7.90;;;6.50;;
12878;SDS011;20617;49.476;10.986;2023-06-22T01:14:10;8.88;;;7.25;;
12878;SDS011;20617;49.476;10.986;2023-06-22T01:16:20;14.93;;;7.30;;
12878;SDS011;20617;49.476;10.986;2023-06-22T01:18:28;12.60;;;8.45;;
12878;SDS011;20617;49.476;10.986;2023-06-22T01:20:40;12.00;;;7.70;;
12878;SDS011;20617;49.476;10.986;2023-06-22T01:22:49;9.55;;;7.57;;
12878;SDS011;20617;49.476;10.986;2023-06-22T01:25:16;18.55;;;8.32;;
12878;SDS011;20617;49.476;10.986;2023-06-22T01:27:28;11.05;;;7.35;;
12878;SDS011;20617;49.476;10.986;2023-06-22T01:29:45;10.13;;;7.20;;
12878;SDS011;20617;49.476;10.986;2023-06-22T01:31:51;10.75;;;8.05;;
12878;SDS011;20617;49.476;10.986;2023-06-22T01:33:59;9.75;;;7.60;;
12878;SDS011;20617;49.476;10.986;2023-06-22T01:36:07;15.18;;;8.07;;
12878;SDS011;20617;49.476;10.986;2023-06-22T01:38:13;12.88;;;8.40;;
12878;SDS011;20617;49.476;10.986;2023-06-22T01:40:21;8.95;;;7.10;;
12878;SDS011;20617;49.476;10.986;2023-06-22T01:42:26;8.45;;;7.57;;
12878;SDS011;20617;49.476;10.986;2023-06-22T01:44:34;8.20;;;7.40;;
12878;SDS011;20617;49.476;10.986;2023-06-22T01:46:42;12.27;;;7.30;;
12878;SDS011;20617;49.476;10.986;2023-06-22T01:48:48;10.02;;;6.65;;
12878;SDS011;20617;49.476;10.986;2023-06-22T01:50:56;11.80;;;6.85;;
12878;SDS011;20617;49.476;10.986;2023-06-22T01:53:02;10.70;;;7.00;;
12878;SDS011;20617;49.476;10.986;2023-06-22T01:55:08;7.88;;;6.78;;
12878;SDS011;20617;49.476;10.986;2023-06-22T01:57:14;10.15;;;7.18;;
12878;SDS011;20617;49.476;10.986;2023-06-22T02:01:31;7.63;;;6.82;;
12878;SDS011;20617;49.476;10.986;2023-06-22T02:03:50;6.93;;;6.00;;
12878;SDS011;20617;49.476;10.986;2023-06-22T02:06:03;8.82;;;6.72;;
12878;SDS011;20617;49.476;10.986;2023-06-22T02:08:11;8.82;;;6.38;;
12878;SDS011;20617;49.476;10.986;2023-06-22T02:10:20;6.80;;;5.68;;
12878;SDS011;20617;49.476;10.986;2023-06-22T02:12:31;7.57;;;6.18;;
12878;SDS011;20617;49.476;10.986;2023-06-22T02:14:37;8.48;;;6.35;;
12878;SDS011;20617;49.476;10.986;2023-06-22T02:16:43;7.45;;;6.20;;
12878;SDS011;20617;49.476;10.986;2023-06-22T02:18:52;9.93;;;6.47;;
12878;SDS011;20617;49.476;10.986;2023-06-22T02:20:56;8.70;;;7.78;;
12878;SDS011;20617;49.476;10.986;2023-06-22T02:23:07;7.72;;;6.93;;
12878;SDS011;20617;49.476;10.986;2023-06-22T02:25:12;9.93;;;7.22;;
12878;SDS011;20617;49.476;10.986;2023-06-22T02:27:20;9.05;;;6.97;;
12878;SDS011;20617;49.476;10.986;2023-06-22T02:31:29;8.55;;;6.90;;
12878;SDS011;20617;49.476;10.986;2023-06-22T02:33:34;7.60;;;6.82;;
12878;SDS011;20617;49.476;10.986;2023-06-22T02:37:49;6.78;;;6.05;;
12878;SDS011;20617;49.476;10.986;2023-06-22T02:39:54;11.25;;;7.78;;
12878;SDS011;20617;49.476;10.986;2023-06-22T02:41:59;11.63;;;8.82;;
12878;SDS011;20617;49.476;10.986;2023-06-22T02:44:04;11.88;;;7.93;;
12878;SDS011;20617;49.476;10.986;2023-06-22T02:46:09;11.98;;;8.90;;
12878;SDS011;20617;49.476;10.986;2023-06-22T02:48:16;10.90;;;8.23;;
12878;SDS011;20617;49.476;10.986;2023-06-22T02:50:23;9.75;;;8.00;;
12878;SDS011;20617;49.476;10.986;2023-06-22T02:52:35;12.82;;;8.40;;
12878;SDS011;20617;49.476;10.986;2023-06-22T02:54:43;12.43;;;9.68;;
12878;SDS011;20617;49.476;10.986;2023-06-22T02:56:49;11.55;;;9.38;;
12878;SDS011;20617;49.476;10.986;2023-06-22T02:58:56;15.18;;;9.60;;
12878;SDS011;20617;49.476;10.986;2023-06-22T03:01:08;11.93;;;9.35;;
12878;SDS011;20617;49.476;10.986;2023-06-22T03:03:17;11.32;;;9.77;;
12878;SDS011;20617;49.476;10.986;2023-06-22T03:07:30;9.77;;;7.68;;
12878;SDS011;20617;49.476;10.986;2023-06-22T03:11:44;10.18;;;8.23;;
12878;SDS011;20617;49.476;10.986;2023-06-22T03:13:49;11.65;;;8.75;;
12878;SDS011;20617;49.476;10.986;2023-06-22T03:15:54;14.57;;;8.82;;
12878;SDS011;20617;49.476;10.986;2023-06-22T03:18:00;10.23;;;9.20;;
12878;SDS011;20617;49.476;10.986;2023-06-22T03:20:09;9.23;;;8.25;;
12878;SDS011;20617;49.476;10.986;2023-06-22T03:22:15;9.57;;;8.23;;
12878;SDS011;20617;49.476;10.986;2023-06-22T03:26:28;12.25;;;8.73;;
12878;SDS011;20617;49.476;10.986;2023-06-22T03:28:34;10.10;;;9.10;;
12878;SDS011;20617;49.476;10.986;2023-06-22T03:30:39;11.25;;;8.80;;
12878;SDS011;20617;49.476;10.986;2023-06-22T03:32:44;11.20;;;9.18;;
12878;SDS011;20617;49.476;10.986;2023-06-22T03:34:49;10.50;;;8.50;;
12878;SDS011;20617;49.476;10.986;2023-06-22T03:38:59;10.52;;;8.23;;
12878;SDS011;20617;49.476;10.986;2023-06-22T03:43:11;9.00;;;8.10;;
12878;SDS011;20617;49.476;10.986;2023-06-22T03:45:16;11.13;;;8.60;;
12878;SDS011;20617;49.476;10.986;2023-06-22T03:47:22;9.27;;;8.27;;
12878;SDS011;20617;49.476;10.986;2023-06-22T03:49:27;13.07;;;9.43;;
12878;SDS011;20617;49.476;10.986;2023-06-22T03:53:37;12.55;;;10.05;;
12878;SDS011;20617;49.476;10.986;2023-06-22T03:55:47;11.45;;;9.70;;
12878;SDS011;20617;49.476;10.986;2023-06-22T03:57:53;12.75;;;9.35;;
12878;SDS011;20617;49.476;10.986;2023-06-22T04:00:01;9.50;;;8.50;;
12878;SDS011;20617;49.476;10.986;2023-06-22T04:02:15;9.55;;;8.30;;
12878;SDS011;20617;49.476;10.986;2023-06-22T04:04:21;10.43;;;9.27;;
12878;SDS011;20617;49.476;10.986;2023-06-22T04:08:30;9.88;;;8.88;;
12878;SDS011;20617;49.476;10.986;2023-06-22T04:10:35;9.45;;;8.50;;
12878;SDS011;20617;49.476;10.986;2023-06-22T04:12:43;10.60;;;9.52;;
12878;SDS011;20617;49.476;10.986;2023-06-22T04:14:48;10.13;;;8.32;;
12878;SDS011;20617;49.476;10.986;2023-06-22T04:16:55;10.30;;;8.88;;
12878;SDS011;20617;49.476;10.986;2023-06-22T04:19:00;11.07;;;9.13;;
12878;SDS011;20617;49.476;10.986;2023-06-22T04:23:10;9.63;;;8.50;;
12878;SDS011;20617;49.476;10.986;2023-06-22T04:27:20;8.65;;;7.60;;
12878;SDS011;20617;49.476;10.986;2023-06-22T04:29:25;9.05;;;7.25;;
12878;SDS011;20617;49.476;10.986;2023-06-22T04:31:32;9.77;;;7.95;;
12878;SDS011;20617;49.476;10.986;2023-06-22T04:33:42;9.43;;;7.80;;
12878;SDS011;20617;49.476;10.986;2023-06-22T04:35:46;10.77;;;7.85;;
12878;SDS011;20617;49.476;10.986;2023-06-22T04:37:52;9.13;;;7.20;;
12878;SDS011;20617;49.476;10.986;2023-06-22T04:39:58;7.53;;;6.72;;
12878;SDS011;20617;49.476;10.986;2023-06-22T04:42:05;7.97;;;6.70;;
12878;SDS011;20617;49.476;10.986;2023-06-22T04:44:10;8.18;;;7.00;;
12878;SDS011;20617;49.476;10.986;2023-06-22T04:46:15;8.32;;;6.85;;
12878;SDS011;20617;49.476;10.986;2023-06-22T04:48:23;8.27;;;6.80;;
12878;SDS011;20617;49.476;10.986;2023-06-22T04:50:37;8.05;;;7.25;;
12878;SDS011;20617;49.476;10.986;2023-06-22T04:52:43;8.65;;;7.00;;
12878;SDS011;20617;49.476;10.986;2023-06-22T04:54:48;8.57;;;6.82;;
12878;SDS011;20617;49.476;10.986;2023-06-22T04:56:57;8.10;;;6.63;;
12878;SDS011;20617;49.476;10.986;2023-06-22T05:01:07;8.43;;;6.65;;
12878;SDS011;20617;49.476;10.986;2023-06-22T05:03:12;7.68;;;6.60;;
12878;SDS011;20617;49.476;10.986;2023-06-22T05:05:21;9.32;;;7.30;;
12878;SDS011;20617;49.476;10.986;2023-06-22T05:07:29;7.82;;;6.60;;
12878;SDS011;20617;49.476;10.986;2023-06-22T05:09:34;7.50;;;6.53;;
12878;SDS011;20617;49.476;10.986;2023-06-22T05:11:39;7.95;;;6.72;;
12878;SDS011;20617;49.476;10.986;2023-06-22T05:15:49;8.35;;;6.13;;
12878;SDS011;20617;49.476;10.986;2023-06-22T05:17:54;7.47;;;6.78;;
12878;SDS011;20617;49.476;10.986;2023-06-22T05:20:00;9.23;;;7.28;;
12878;SDS011;20617;49.476;10.986;2023-06-22T05:22:08;9.70;;;7.28;;
12878;SDS011;20617;49.476;10.986;2023-06-22T05:24:17;10.00;;;7.00;;
12878;SDS011;20617;49.476;10.986;2023-06-22T05:26:22;8.07;;;6.53;;
12878;SDS011;20617;49.476;10.986;2023-06-22T05:28:28;12.35;;;7.35;;
12878;SDS011;20617;49.476;10.986;2023-06-22T05:30:33;7.82;;;7.03;;
12878;SDS011;20617;49.476;10.986;2023-06-22T05:34:43;6.53;;;5.90;;
12878;SDS011;20617;49.476;10.986;2023-06-22T05:38:53;7.50;;;6.32;;
12878;SDS011;20617;49.476;10.986;2023-06-22T05:41:03;10.05;;;7.00;;
12878;SDS011;20617;49.476;10.986;2023-06-22T05:43:09;9.20;;;7.22;;
12878;SDS011;20617;49.476;10.986;2023-06-22T05:47:18;7.97;;;6.75;;
12878;SDS011;20617;49.476;10.986;2023-06-22T05:49:24;10.00;;;7.07;;
12878;SDS011;20617;49.476;10.986;2023-06-22T05:51:31;10.32;;;7.28;;
12878;SDS011;20617;49.476;10.986;2023-06-22T05:55:41;9.23;;;7.03;;
12878;SDS011;20617;49.476;10.986;2023-06-22T05:57:49;8.95;;;7.45;;
12878;SDS011;20617;49.476;10.986;2023-06-22T05:59:54;9.05;;;6.85;;
12878;SDS011;20617;49.476;10.986;2023-06-22T06:04:03;9.70;;;7.63;;
12878;SDS011;20617;49.476;10.986;2023-06-22T06:06:10;8.07;;;7.30;;
12878;SDS011;20617;49.476;10.986;2023-06-22T06:08:15;10.80;;;7.40;;
12878;SDS011;20617;49.476;10.986;2023-06-22T06:12:25;10.90;;;8.10;;
12878;SDS011;20617;49.476;10.986;2023-06-22T06:16:38;10.20;;;8.45;;
12878;SDS011;20617;49.476;10.986;2023-06-22T06:18:43;8.88;;;7.97;;
12878;SDS011;20617;49.476;10.986;2023-06-22T06:20:50;10.32;;;7.72;;
12878;SDS011;20617;49.476;10.986;2023-06-22T06:22:57;10.98;;;7.60;;
12878;SDS011;20617;49.476;10.986;2023-06-22T06:25:02;11.52;;;7.50;;
12878;SDS011;20617;49.476;10.986;2023-06-22T06:27:08;8.95;;;7.38;;
12878;SDS011;20617;49.476;10.986;2023-06-22T06:29:13;10.60;;;8.23;;
12878;SDS011;20617;49.476;10.986;2023-06-22T06:31:21;7.80;;;6.78;;
12878;SDS011;20617;49.476;10.986;2023-06-22T06:33:26;8.50;;;6.32;;
12878;SDS011;20617;49.476;10.986;2023-06-22T06:35:33;7.63;;;6.70;;
12878;SDS011;20617;49.476;10.986;2023-06-22T06:37:40;8.75;;;7.30;;
12878;SDS011;20617;49.476;10.986;2023-06-22T06:39:46;9.73;;;7.70;;
12878;SDS011;20617;49.476;10.986;2023-06-22T06:41:51;10.98;;;6.97;;
12878;SDS011;20617;49.476;10.986;2023-06-22T06:46:02;7.32;;;6.63;;
12878;SDS011;20617;49.476;10.986;2023-06-22T06:48:10;9.27;;;6.10;;
12878;SDS011;20617;49.476;10.986;2023-06-22T06:50:15;8.27;;;7.00;;
12878;SDS011;20617;49.476;10.986;2023-06-22T06:52:20;10.93;;;7.05;;
12878;SDS011;20617;49.476;10.986;2023-06-22T06:56:30;9.02;;;6.78;;
12878;SDS011;20617;49.476;10.986;2023-06-22T06:58:35;11.40;;;7.63;;
12878;SDS011;20617;49.476;10.986;2023-06-22T07:00:43;7.20;;;5.88;;
12878;SDS011;20617;49.476;10.986;2023-06-22T07:02:48;7.57;;;6.03;;
12878;SDS011;20617;49.476;10.986;2023-06-22T07:04:56;8.55;;;6.53;;
12878;SDS011;20617;49.476;10.986;2023-06-22T07:07:01;7.68;;;6.85;;
12878;SDS011;20617;49.476;10.986;2023-06-22T07:09:07;7.63;;;6.35;;
12878;SDS011;20617;49.476;10.986;2023-06-22T07:13:17;10.15;;;7.50;;
12878;SDS011;20617;49.476;10.986;2023-06-22T07:17:26;7.13;;;6.10;;
12878;SDS011;20617;49.476;10.986;2023-06-22T07:21:39;7.70;;;5.95;;
12878;SDS011;20617;49.476;10.986;2023-06-22T07:23:44;7.80;;;6.95;;
12878;SDS011;20617;49.476;10.986;2023-06-22T07:27:58;8.52;;;6.78;;
12878;SDS011;20617;49.476;10.986;2023-06-22T07:30:05;7.35;;;5.70;;
12878;SDS011;20617;49.476;10.986;2023-06-22T07:32:11;8.07;;;6.90;;
12878;SDS011;20617;49.476;10.986;2023-06-22T07:34:16;8.82;;;6.68;;
12878;SDS011;20617;49.476;10.986;2023-06-22T07:36:21;8.45;;;6.50;;
12878;SDS011;20617;49.476;10.986;2023-06-22T07:38:29;6.78;;;6.00;;
12878;SDS011;20617;49.476;10.986;2023-06-22T07:40:34;7.72;;;6.05;;
12878;SDS011;20617;49.476;10.986;2023-06-22T07:42:39;6.90;;;5.85;;
12878;SDS011;20617;49.476;10.986;2023-06-22T07:44:49;5.85;;;5.35;;
12878;SDS011;20617;49.476;10.986;2023-06-22T07:46:55;8.88;;;5.50;;
12878;SDS011;20617;49.476;10.986;2023-06-22T07:49:00;6.00;;;5.40;;
12878;SDS011;20617;49.476;10.986;2023-06-22T07:51:05;7.63;;;6.00;;
12878;SDS011;20617;49.476;10.986;2023-06-22T07:53:10;6.25;;;5.45;;
12878;SDS011;20617;49.476;10.986;2023-06-22T07:57:23;5.22;;;4.38;;
12878;SDS011;20617;49.476;10.986;2023-06-22T07:59:34;6.82;;;4.90;;
12878;SDS011;20617;49.476;10.986;2023-06-22T08:01:39;9.63;;;6.05;;
12878;SDS011;20617;49.476;10.986;2023-06-22T08:03:44;7.07;;;5.07;;
12878;SDS011;20617;49.476;10.986;2023-06-22T08:05:49;8.82;;;5.65;;
12878;SDS011;20617;49.476;10.986;2023-06-22T08:07:54;7.80;;;6.20;;
12878;SDS011;20617;49.476;10.986;2023-06-22T08:09:59;6.00;;;5.13;;
12878;SDS011;20617;49.476;10.986;2023-06-22T08:12:07;8.60;;;5.50;;
12878;SDS011;20617;49.476;10.986;2023-06-22T08:14:14;6.82;;;5.82;;
12878;SDS011;20617;49.476;10.986;2023-06-22T08:16:19;5.63;;;4.90;;
12878;SDS011;20617;49.476;10.986;2023-06-22T08:20:29;6.85;;;5.00;;
12878;SDS011;20617;49.476;10.986;2023-06-22T08:22:34;10.52;;;5.03;;
12878;SDS011;20617;49.476;10.986;2023-06-22T08:24:39;10.57;;;4.60;;
12878;SDS011;20617;49.476;10.986;2023-06-22T08:28:51;7.97;;;4.50;;
12878;SDS011;20617;49.476;10.986;2023-06-22T08:30:57;7.97;;;4.50;;
12878;SDS011;20617;49.476;10.986;2023-06-22T08:33:02;5.13;;;4.47;;
12878;SDS011;20617;49.476;10.986;2023-06-22T08:35:07;6.20;;;4.15;;
12878;SDS011;20617;49.476;10.986;2023-06-22T08:37:13;5.88;;;4.65;;
12878;SDS011;20617;49.476;10.986;2023-06-22T08:39:18;7.70;;;4.30;;
12878;SDS011;20617;49.476;10.986;2023-06-22T08:41:23;5.97;;;3.50;;
12878;SDS011;20617;49.476;10.986;2023-06-22T08:43:29;9.93;;;4.20;;
12878;SDS011;20617;49.476;10.986;2023-06-22T08:45:36;5.28;;;3.45;;
12878;SDS011;20617;49.476;10.986;2023-06-22T08:47:42;6.55;;;4.03;;
12878;SDS011;20617;49.476;10.986;2023-06-22T08:49:47;5.07;;;4.57;;
12878;SDS011;20617;49.476;10.986;2023-06-22T08:51:53;5.95;;;4.13;;
12878;SDS011;20617;49.476;10.986;2023-06-22T08:53:58;6.32;;;4.18;;
12878;SDS011;20617;49.476;10.986;2023-06-22T08:56:03;8.30;;;4.40;;
12878;SDS011;20617;49.476;10.986;2023-06-22T08:58:09;7.25;;;3.85;;
12878;SDS011;20617;49.476;10.986;2023-06-22T09:00:14;6.68;;;4.30;;
12878;SDS011;20617;49.476;10.986;2023-06-22T09:02:24;8.20;;;4.20;;
12878;SDS011;20617;49.476;10.986;2023-06-22T09:04:33;5.88;;;3.95;;
12878;SDS011;20617;49.476;10.986;2023-06-22T09:06:39;5.90;;;4.13;;
12878;SDS011;20617;49.476;10.986;2023-06-22T09:08:46;7.43;;;4.00;;
12878;SDS011;20617;49.476;10.986;2023-06-22T09:10:51;6.90;;;4.38;;
12878;SDS011;20617;49.476;10.986;2023-06-22T09:12:57;6.35;;;4.00;;
12878;SDS011;20617;49.476;10.986;2023-06-22T09:15:02;8.48;;;4.78;;
12878;SDS011;20617;49.476;10.986;2023-06-22T09:17:14;9.25;;;4.28;;
12878;SDS011;20617;49.476;10.986;2023-06-22T09:19:21;8.38;;;4.43;;
12878;SDS011;20617;49.476;10.986;2023-06-22T09:21:26;7.30;;;3.72;;
12878;SDS011;20617;49.476;10.986;2023-06-22T09:23:35;7.90;;;4.20;;
12878;SDS011;20617;49.476;10.986;2023-06-22T09:25:40;9.43;;;4.50;;
12878;SDS011;20617;49.476;10.986;2023-06-22T09:27:45;6.50;;;4.22;;
12878;SDS011;20617;49.476;10.986;2023-06-22T09:29:50;9.05;;;4.10;;
12878;SDS011;20617;49.476;10.986;2023-06-22T09:31:55;9.00;;;4.38;;
12878;SDS011;20617;49.476;10.986;2023-06-22T09:34:00;12.70;;;5.10;;
12878;SDS011;20617;49.476;10.986;2023-06-22T09:36:09;9.05;;;4.50;;
12878;SDS011;20617;49.476;10.986;2023-06-22T09:38:14;8.88;;;4.68;;
12878;SDS011;20617;49.476;10.986;2023-06-22T09:40:19;7.78;;;4.15;;
12878;SDS011;20617;49.476;10.986;2023-06-22T09:42:24;11.23;;;4.65;;
12878;SDS011;20617;49.476;10.986;2023-06-22T09:44:29;6.03;;;4.13;;
12878;SDS011;20617;49.476;10.986;2023-06-22T09:46:34;10.93;;;4.57;;
12878;SDS011;20617;49.476;10.986;2023-06-22T09:48:39;6.20;;;4.20;;
12878;SDS011;20617;49.476;10.986;2023-06-22T09:50:43;7.55;;;3.80;;
12878;SDS011;20617;49.476;10.986;2023-06-22T09:52:51;5.55;;;3.88;;
12878;SDS011;20617;49.476;10.986;2023-06-22T09:54:56;7.30;;;4.50;;
12878;SDS011;20617;49.476;10.986;2023-06-22T09:57:01;7.15;;;4.55;;
12878;SDS011;20617;49.476;10.986;2023-06-22T09:59:09;6.93;;;4.22;;
12878;SDS011;20617;49.476;10.986;2023-06-22T10:01:19;6.72;;;4.05;;
12878;SDS011;20617;49.476;10.986;2023-06-22T10:03:25;10.05;;;4.75;;
12878;SDS011;20617;49.476;10.986;2023-06-22T10:05:30;9.70;;;5.15;;
12878;SDS011;20617;49.476;10.986;2023-06-22T10:07:35;12.07;;;4.78;;
12878;SDS011;20617;49.476;10.986;2023-06-22T10:09:47;9.27;;;4.47;;
12878;SDS011;20617;49.476;10.986;2023-06-22T10:11:52;9.48;;;4.55;;
12878;SDS011;20617;49.476;10.986;2023-06-22T10:13:57;11.40;;;4.95;;
12878;SDS011;20617;49.476;10.986;2023-06-22T10:16:01;7.25;;;4.45;;
12878;SDS011;20617;49.476;10.986;2023-06-22T10:18:09;8.93;;;4.57;;
12878;SDS011;20617;49.476;10.986;2023-06-22T10:20:14;12.63;;;4.30;;
12878;SDS011;20617;49.476;10.986;2023-06-22T10:22:20;8.15;;;4.50;;
12878;SDS011;20617;49.476;10.986;2023-06-22T10:24:28;11.57;;;5.13;;
12878;SDS011;20617;49.476;10.986;2023-06-22T10:26:35;8.15;;;4.78;;
12878;SDS011;20617;49.476;10.986;2023-06-22T10:28:41;7.95;;;4.28;;
12878;SDS011;20617;49.476;10.986;2023-06-22T10:30:46;8.40;;;4.32;;
12878;SDS011;20617;49.476;10.986;2023-06-22T10:32:51;7.22;;;4.63;;
12878;SDS011;20617;49.476;10.986;2023-06-22T10:34:56;7.25;;;4.20;;
12878;SDS011;20617;49.476;10.986;2023-06-22T10:37:01;6.90;;;4.22;;
12878;SDS011;20617;49.476;10.986;2023-06-22T10:39:08;9.35;;;4.43;;
12878;SDS011;20617;49.476;10.986;2023-06-22T10:41:13;9.15;;;4.07;;
12878;SDS011;20617;49.476;10.986;2023-06-22T10:43:21;8.52;;;4.72;;
12878;SDS011;20617;49.476;10.986;2023-06-22T10:45:26;8.05;;;4.40;;
12878;SDS011;20617;49.476;10.986;2023-06-22T10:47:32;8.18;;;4.65;;
12878;SDS011;20617;49.476;10.986;2023-06-22T10:49:37;6.88;;;4.43;;
12878;SDS011;20617;49.476;10.986;2023-06-22T10:51:42;5.30;;;4.05;;
12878;SDS011;20617;49.476;10.986;2023-06-22T10:53:47;9.35;;;4.82;;
12878;SDS011;20617;49.476;10.986;2023-06-22T10:55:52;7.15;;;3.58;;
12878;SDS011;20617;49.476;10.986;2023-06-22T10:57:58;11.30;;;5.25;;
12878;SDS011;20617;49.476;10.986;2023-06-22T11:00:09;8.23;;;5.00;;
12878;SDS011;20617;49.476;10.986;2023-06-22T11:02:15;10.55;;;4.82;;
12878;SDS011;20617;49.476;10.986;2023-06-22T11:04:20;7.28;;;4.00;;
12878;SDS011;20617;49.476;10.986;2023-06-22T11:06:25;6.93;;;4.30;;
12878;SDS011;20617;49.476;10.986;2023-06-22T11:08:30;10.05;;;4.75;;
12878;SDS011;20617;49.476;10.986;2023-06-22T11:10:35;9.02;;;5.10;;
12878;SDS011;20617;49.476;10.986;2023-06-22T11:12:43;13.02;;;4.78;;
12878;SDS011;20617;49.476;10.986;2023-06-22T11:14:48;10.52;;;5.00;;
12878;SDS011;20617;49.476;10.986;2023-06-22T11:16:56;9.38;;;5.00;;
12878;SDS011;20617;49.476;10.986;2023-06-22T11:19:01;11.05;;;5.13;;
12878;SDS011;20617;49.476;10.986;2023-06-22T11:21:07;8.05;;;4.72;;
12878;SDS011;20617;49.476;10.986;2023-06-22T11:23:12;11.93;;;5.45;;
12878;SDS011;20617;49.476;10.986;2023-06-22T11:25:17;10.15;;;4.38;;
12878;SDS011;20617;49.476;10.986;2023-06-22T11:27:22;11.32;;;4.38;;
12878;SDS011;20617;49.476;10.986;2023-06-22T11:29:27;8.98;;;4.72;;
12878;SDS011;20617;49.476;10.986;2023-06-22T11:31:38;8.80;;;4.25;;
12878;SDS011;20617;49.476;10.986;2023-06-22T11:33:47;12.05;;;5.13;;
12878;SDS011;20617;49.476;10.986;2023-06-22T11:35:52;11.48;;;5.55;;
12878;SDS011;20617;49.476;10.986;2023-06-22T11:37:58;6.47;;;4.00;;
12878;SDS011;20617;49.476;10.986;2023-06-22T11:40:03;8.57;;;5.15;;
12878;SDS011;20617;49.476;10.986;2023-06-22T11:42:11;12.05;;;5.13;;
12878;SDS011;20617;49.476;10.986;2023-06-22T11:44:16;6.82;;;4.30;;
12878;SDS011;20617;49.476;10.986;2023-06-22T11:46:21;6.72;;;4.38;;
12878;SDS011;20617;49.476;10.986;2023-06-22T11:48:26;8.07;;;5.38;;
12878;SDS011;20617;49.476;10.986;2023-06-22T11:50:33;9.02;;;5.05;;
12878;SDS011;20617;49.476;10.986;2023-06-22T11:52:39;6.10;;;4.13;;
12878;SDS011;20617;49.476;10.986;2023-06-22T11:54:44;9.10;;;4.32;;
12878;SDS011;20617;49.476;10.986;2023-06-22T11:56:49;7.75;;;4.20;;
12878;SDS011;20617;49.476;10.986;2023-06-22T11:58:54;12.20;;;4.80;;
12878;SDS011;20617;49.476;10.986;2023-06-22T12:00:58;9.80;;;5.32;;
12878;SDS011;20617;49.476;10.986;2023-06-22T12:03:03;12.00;;;4.50;;
12878;SDS011;20617;49.476;10.986;2023-06-22T12:05:09;11.30;;;4.65;;
12878;SDS011;20617;49.476;10.986;2023-06-22T12:07:16;9.68;;;4.50;;
12878;SDS011;20617;49.476;10.986;2023-06-22T12:09:21;9.38;;;4.88;;
12878;SDS011;20617;49.476;10.986;2023-06-22T12:11:26;10.70;;;4.47;;
12878;SDS011;20617;49.476;10.986;2023-06-22T12:13:31;7.90;;;4.13;;
12878;SDS011;20617;49.476;10.986;2023-06-22T12:15:36;10.65;;;5.30;;
12878;SDS011;20617;49.476;10.986;2023-06-22T12:17:41;9.10;;;6.13;;
12878;SDS011;20617;49.476;10.986;2023-06-22T12:19:46;9.15;;;4.40;;
12878;SDS011;20617;49.476;10.986;2023-06-22T12:21:51;9.38;;;5.35;;
12878;SDS011;20617;49.476;10.986;2023-06-22T12:23:59;11.98;;;5.28;;
12878;SDS011;20617;49.476;10.986;2023-06-22T12:26:04;9.57;;;4.60;;
12878;SDS011;20617;49.476;10.986;2023-06-22T12:28:09;9.50;;;5.30;;
12878;SDS011;20617;49.476;10.986;2023-06-22T12:30:15;9.20;;;4.95;;
12878;SDS011;20617;49.476;10.986;2023-06-22T12:32:21;8.27;;;3.92;;
12878;SDS011;20617;49.476;10.986;2023-06-22T12:34:27;6.72;;;4.28;;
12878;SDS011;20617;49.476;10.986;2023-06-22T12:36:32;8.18;;;4.32;;
12878;SDS011;20617;49.476;10.986;2023-06-22T12:38:37;14.05;;;4.70;;
12878;SDS011;20617;49.476;10.986;2023-06-22T12:40:44;13.98;;;6.00;;
12878;SDS011;20617;49.476;10.986;2023-06-22T12:42:51;9.73;;;4.78;;
12878;SDS011;20617;49.476;10.986;2023-06-22T12:44:56;9.68;;;4.45;;
12878;SDS011;20617;49.476;10.986;2023-06-22T12:47:01;7.18;;;4.43;;
12878;SDS011;20617;49.476;10.986;2023-06-22T12:49:08;9.73;;;5.13;;
12878;SDS011;20617;49.476;10.986;2023-06-22T12:51:20;6.45;;;4.05;;
12878;SDS011;20617;49.476;10.986;2023-06-22T12:53:26;7.47;;;4.38;;
12878;SDS011;20617;49.476;10.986;2023-06-22T12:55:31;11.65;;;4.72;;
12878;SDS011;20617;49.476;10.986;2023-06-22T12:57:39;10.73;;;5.05;;
12878;SDS011;20617;49.476;10.986;2023-06-22T12:59:44;10.43;;;5.07;;
12878;SDS011;20617;49.476;10.986;2023-06-22T13:01:49;8.73;;;4.28;;
12878;SDS011;20617;49.476;10.986;2023-06-22T13:03:54;9.57;;;4.57;;
12878;SDS011;20617;49.476;10.986;2023-06-22T13:05:59;8.88;;;4.13;;
12878;SDS011;20617;49.476;10.986;2023-06-22T13:08:05;11.80;;;4.80;;
12878;SDS011;20617;49.476;10.986;2023-06-22T13:10:13;10.98;;;4.93;;
12878;SDS011;20617;49.476;10.986;2023-06-22T13:12:19;13.27;;;5.32;;
12878;SDS011;20617;49.476;10.986;2023-06-22T13:14:27;9.60;;;3.90;;
12878;SDS011;20617;49.476;10.986;2023-06-22T13:16:32;10.75;;;4.72;;
12878;SDS011;20617;49.476;10.986;2023-06-22T13:18:37;7.97;;;4.28;;
12878;SDS011;20617;49.476;10.986;2023-06-22T13:20:44;11.82;;;5.05;;
12878;SDS011;20617;49.476;10.986;2023-06-22T13:22:49;10.90;;;5.15;;
12878;SDS011;20617;49.476;10.986;2023-06-22T13:24:55;12.13;;;4.90;;
12878;SDS011;20617;49.476;10.986;2023-06-22T13:27:00;9.38;;;4.85;;
12878;SDS011;20617;49.476;10.986;2023-06-22T13:29:05;15.40;;;4.70;;
12878;SDS011;20617;49.476;10.986;2023-06-22T13:31:15;17.40;;;4.45;;
12878;SDS011;20617;49.476;10.986;2023-06-22T13:33:20;9.25;;;5.22;;
12878;SDS011;20617;49.476;10.986;2023-06-22T13:35:25;11.40;;;4.57;;
12878;SDS011;20617;49.476;10.986;2023-06-22T13:37:31;6.60;;;4.50;;
12878;SDS011;20617;49.476;10.986;2023-06-22T13:39:36;13.20;;;5.60;;
12878;SDS011;20617;49.476;10.986;2023-06-22T13:41:41;10.25;;;4.28;;